Time;durP1;ratioP1;P1;durP2;ratioP2;P2;SDS_P1;SDS_P2;PMS_P1;PMS_P2;Temp;Humidity;BMP_temperature;BMP_pressure;BME280_temperature;BME280_humidity;BME280_pressure;Samples;Min_cycle;Max_cycle;Signal;HPM_P1;HPM_P2
2022/10/07 00:01:17;;;;;;;4.10;3.70;;;17.90;54.10;;;;;;20465;6846;282140;-88
2022/10/07 00:03:43;;;;;;;5.20;4.07;;;18.20;54.10;;;;;;20500;6846;309110;-87
2022/10/07 00:06:16;;;;;;;6.10;3.70;;;18.10;54.00;;;;;;20485;6848;308958;-90
2022/10/07 00:08:50;;;;;;;6.80;4.30;;;18.30;53.70;;;;;;20470;6848;338145;-88
2022/10/07 00:11:15;;;;;;;6.53;4.40;;;18.50;53.60;;;;;;20474;6848;309176;-87
2022/10/07 00:13:43;;;;;;;4.40;3.97;;;18.30;54.30;;;;;;20698;6848;123345;-87
2022/10/07 00:16:12;;;;;;;6.33;4.60;;;18.30;53.60;;;;;;20498;6848;308199;-87
2022/10/07 00:18:37;;;;;;;7.37;6.07;;;18.20;53.80;;;;;;20707;6848;117165;-87
2022/10/07 00:21:03;;;;;;;14.63;11.80;;;17.70;54.60;;;;;;20713;6848;117532;-87
2022/10/07 00:23:29;;;;;;;10.88;7.60;;;17.70;54.30;;;;;;20347;6847;307993;-87
2022/10/07 00:25:54;;;;;;;7.30;5.70;;;17.80;54.60;;;;;;20511;6847;337518;-89
2022/10/07 00:28:21;;;;;;;6.70;5.10;;;18.30;53.90;;;;;;20488;6848;279979;-90
2022/10/07 00:30:46;;;;;;;6.47;4.70;;;18.20;53.80;;;;;;20500;6846;311908;-87
2022/10/07 00:33:13;;;;;;;4.43;4.00;;;18.50;53.30;;;;;;20472;6844;313139;-87
2022/10/07 00:35:38;;;;;;;5.67;4.00;;;18.40;53.20;;;;;;20725;6844;117549;-87
2022/10/07 00:38:04;;;;;;;5.73;3.60;;;17.80;53.80;;;;;;20720;6844;117172;-87
2022/10/07 00:40:30;;;;;;;4.70;4.23;;;17.80;53.90;;;;;;20508;6844;306652;-87
2022/10/07 00:42:56;;;;;;;4.37;3.63;;;18.10;53.50;;;;;;20503;6844;334824;-87
2022/10/07 00:45:24;;;;;;;6.05;3.80;;;18.30;52.90;;;;;;20490;6845;281101;-87
2022/10/07 00:47:51;;;;;;;4.83;3.63;;;18.20;52.80;;;;;;20721;6845;123763;-87
2022/10/07 00:50:20;;;;;;;4.50;3.67;;;18.00;52.90;;;;;;20511;6845;278975;-87
2022/10/07 00:52:49;;;;;;;4.20;3.40;;;18.10;53.20;;;;;;20702;6841;117725;-86
2022/10/07 00:55:15;;;;;;;5.97;3.43;;;17.60;53.60;;;;;;20702;6841;117615;-87
2022/10/07 00:57:42;;;;;;;6.87;3.90;;;17.60;53.60;;;;;;20701;6841;117716;-86
2022/10/07 01:00:09;;;;;;;6.30;4.30;;;17.10;53.80;;;;;;20729;6841;117731;-87
2022/10/07 01:02:36;;;;;;;6.12;3.90;;;17.30;54.50;;;;;;20511;6841;336823;-87
2022/10/07 01:05:02;;;;;;;4.30;3.90;;;17.30;54.50;;;;;;20740;6841;118476;-87
2022/10/07 01:07:28;;;;;;;6.13;3.80;;;17.30;54.30;;;;;;20702;6841;118691;-87
2022/10/07 01:09:53;;;;;;;7.22;3.95;;;17.20;54.50;;;;;;20527;6841;345161;-87
2022/10/07 01:12:58;;;;;;;5.95;5.35;;;17.30;54.50;;;;;;20524;6841;278604;-87
2022/10/07 01:15:34;;;;;;;8.03;5.90;;;17.70;54.20;;;;;;20708;6841;117760;-87
2022/10/07 01:18:16;;;;;;;4.28;3.87;;;17.50;54.00;;;;;;20511;6841;337731;-87
2022/10/07 01:20:58;;;;;;;5.87;4.00;;;17.60;53.90;;;;;;20520;6841;337569;-87
2022/10/07 01:23:55;;;;;;;4.40;3.60;;;17.90;53.60;;;;;;19885;6841;303083;-87
2022/10/07 01:26:39;;;;;;;7.33;4.20;;;18.10;53.20;;;;;;19698;6841;312287;-87
2022/10/07 01:29:07;;;;;;;4.73;3.80;;;18.30;52.50;;;;;;20490;6841;308547;-87
2022/10/07 01:31:31;;;;;;;5.50;3.60;;;18.30;52.50;;;;;;20697;6841;117490;-87
2022/10/07 01:33:56;;;;;;;5.95;4.18;;;18.00;52.70;;;;;;20500;6841;312806;-87
2022/10/07 01:36:22;;;;;;;4.93;3.77;;;18.00;52.90;;;;;;20728;6839;122558;-87
2022/10/07 01:38:48;;;;;;;5.60;3.30;;;17.80;53.10;;;;;;20726;6841;119549;-87
2022/10/07 01:41:14;;;;;;;4.93;3.17;;;17.50;53.60;;;;;;20702;6841;120210;-87
2022/10/07 01:43:38;;;;;;;7.50;3.90;;;17.30;54.00;;;;;;20731;6841;117859;-87
2022/10/07 01:46:04;;;;;;;4.30;3.90;;;17.10;54.40;;;;;;20522;6841;308240;-87
2022/10/07 01:48:31;;;;;;;10.57;9.63;;;17.30;55.00;;;;;;20736;6841;117139;-87
2022/10/07 01:50:58;;;;;;;22.27;20.13;;;17.30;54.50;;;;;;20512;6841;342242;-87
2022/10/07 01:53:46;;;;;;;10.70;9.23;;;17.40;54.20;;;;;;20706;6841;117714;-88
2022/10/07 01:56:30;;;;;;;7.63;6.43;;;17.40;54.20;;;;;;20730;6841;117091;-87
2022/10/07 01:59:22;;;;;;;7.73;4.70;;;17.20;54.50;;;;;;20734;6841;117257;-87
2022/10/07 02:02:15;;;;;;;4.47;3.77;;;16.90;54.70;;;;;;20783;6841;116621;-87
2022/10/07 02:04:44;;;;;;;4.20;3.50;;;16.60;55.40;;;;;;20719;6841;116996;-87
2022/10/07 02:07:16;;;;;;;4.47;4.12;;;16.60;55.40;;;;;;20484;6841;278034;-87
2022/10/07 02:09:45;;;;;;;4.67;4.20;;;16.90;55.80;;;;;;20493;6841;278498;-87
2022/10/07 02:12:21;;;;;;;6.33;4.40;;;17.30;55.10;;;;;;20698;6841;117257;-87
2022/10/07 02:14:51;;;;;;;5.32;4.00;;;17.50;54.70;;;;;;20491;6841;300824;-87
2022/10/07 02:17:16;;;;;;;4.33;3.93;;;17.50;54.70;;;;;;20475;6841;308550;-88
2022/10/07 02:19:42;;;;;;;5.17;4.03;;;17.80;54.90;;;;;;20509;6841;310061;-87
2022/10/07 02:22:08;;;;;;;5.97;3.53;;;18.00;53.70;;;;;;20502;6841;279760;-87
2022/10/07 02:24:33;;;;;;;4.20;3.80;;;18.10;53.30;;;;;;20513;6841;295960;-88
2022/10/07 02:26:59;;;;;;;6.27;3.90;;;18.30;53.00;;;;;;20510;6841;308130;-87
2022/10/07 02:29:24;;;;;;;5.33;3.83;;;18.40;52.80;;;;;;20703;6841;117468;-88
2022/10/07 02:31:50;;;;;;;4.70;4.25;;;18.20;53.00;;;;;;20507;6841;279295;-88
2022/10/07 02:34:16;;;;;;;4.90;4.17;;;18.10;53.10;;;;;;20723;6841;117337;-88
2022/10/07 02:36:48;;;;;;;4.87;4.37;;;17.90;53.30;;;;;;20504;6841;311652;-87
2022/10/07 02:39:13;;;;;;;6.47;4.60;;;17.90;53.60;;;;;;20674;6841;117969;-87
2022/10/07 02:41:46;;;;;;;5.97;4.80;;;17.80;53.70;;;;;;20516;6841;298585;-90
2022/10/07 02:44:24;;;;;;;5.53;4.40;;;17.80;53.90;;;;;;20717;6841;117718;-87
2022/10/07 02:46:47;;;;;;;7.20;4.80;;;17.70;54.00;;;;;;20515;6840;278818;-87
2022/10/07 02:49:12;;;;;;;4.83;4.20;;;17.70;54.70;;;;;;20703;6841;117770;-87
2022/10/07 02:51:38;;;;;;;5.55;4.15;;;17.60;54.80;;;;;;20722;6841;117523;-87
2022/10/07 02:54:05;;;;;;;5.07;4.57;;;17.30;55.20;;;;;;20694;6841;124180;-86
2022/10/07 02:56:31;;;;;;;4.95;4.37;;;17.10;55.50;;;;;;20505;6841;278527;-88
2022/10/07 02:58:56;;;;;;;8.70;3.83;;;17.20;55.70;;;;;;20711;6841;117113;-87
2022/10/07 03:01:22;;;;;;;5.83;4.17;;;17.10;55.70;;;;;;20692;6841;117810;-87
2022/10/07 03:03:47;;;;;;;6.05;4.30;;;17.00;55.90;;;;;;20508;6841;284421;-87
2022/10/07 03:06:15;;;;;;;4.78;4.15;;;17.10;56.40;;;;;;20492;6841;285456;-87
2022/10/07 03:08:41;;;;;;;5.77;4.10;;;17.40;56.20;;;;;;20504;6841;279216;-87
2022/10/07 03:11:08;;;;;;;4.65;3.97;;;17.80;55.20;;;;;;20510;6841;307600;-87
2022/10/07 03:13:34;;;;;;;5.87;4.03;;;17.80;55.20;;;;;;20524;6841;313126;-88
2022/10/07 03:16:00;;;;;;;7.12;4.22;;;18.00;54.70;;;;;;20514;6841;294020;-87
2022/10/07 03:18:27;;;;;;;3.90;3.50;;;18.00;54.70;;;;;;20722;6841;117108;-87
2022/10/07 03:20:55;;;;;;;5.77;3.50;;;17.80;54.90;;;;;;20730;6841;117171;-88
2022/10/07 03:23:22;;;;;;;6.07;3.67;;;17.40;55.50;;;;;;20708;6841;118677;-84
2022/10/07 03:25:48;;;;;;;5.77;4.10;;;17.10;56.00;;;;;;20513;6841;307631;-84
2022/10/07 03:28:13;;;;;;;5.18;4.10;;;17.20;56.40;;;;;;20524;6841;307694;-84
2022/10/07 03:30:39;;;;;;;7.47;3.70;;;17.50;56.10;;;;;;20742;6841;117472;-84
2022/10/07 03:33:05;;;;;;;8.77;3.70;;;17.40;56.00;;;;;;20740;6841;116790;-84
2022/10/07 03:35:30;;;;;;;5.33;3.70;;;17.10;56.30;;;;;;20564;6841;117628;-84
2022/10/07 03:37:56;;;;;;;4.97;4.20;;;16.90;56.60;;;;;;20528;6841;309075;-85
2022/10/07 03:40:21;;;;;;;5.20;3.93;;;17.00;56.70;;;;;;20743;6841;116956;-84
2022/10/07 03:42:49;;;;;;;5.87;3.83;;;17.00;56.50;;;;;;20513;6841;339720;-84
2022/10/07 03:45:12;;;;;;;7.12;4.70;;;17.10;56.40;;;;;;20501;6841;278730;-85
2022/10/07 03:47:38;;;;;;;6.63;4.60;;;17.40;55.80;;;;;;20520;6841;307692;-85
2022/10/07 03:50:04;;;;;;;5.80;5.30;;;17.60;55.20;;;;;;20518;6841;278150;-85
2022/10/07 03:52:29;;;;;;;5.30;4.07;;;17.70;54.70;;;;;;20734;6841;117035;-85
2022/10/07 03:54:56;;;;;;;6.20;4.60;;;17.20;55.40;;;;;;20731;6841;121032;-85
2022/10/07 04:00:07;;;;;;;5.17;4.10;;;17.20;55.40;;;;;;20523;6840;308075;-85
2022/10/07 04:02:34;;;;;;;5.53;4.10;;;17.40;55.10;;;;;;20529;6841;308537;-85
2022/10/07 04:04:59;;;;;;;7.93;3.80;;;17.60;54.70;;;;;;20731;6841;117926;-84
2022/10/07 04:07:25;;;;;;;5.47;3.72;;;17.40;54.80;;;;;;20510;6841;280688;-86
2022/10/07 04:09:51;;;;;;;5.50;3.63;;;17.30;54.90;;;;;;20712;6841;121560;-85
2022/10/07 04:12:16;;;;;;;5.55;3.62;;;17.10;55.00;;;;;;20526;6841;308156;-89
2022/10/07 04:14:42;;;;;;;6.87;4.10;;;17.10;55.00;;;;;;20524;6841;312155;-88
2022/10/07 04:17:07;;;;;;;5.73;4.27;;;17.30;54.50;;;;;;20504;6841;308645;-88
2022/10/07 04:19:34;;;;;;;4.87;4.10;;;17.40;54.00;;;;;;20529;6841;312569;-85
2022/10/07 04:21:59;;;;;;;6.93;4.28;;;17.40;53.50;;;;;;20531;6841;280344;-85
2022/10/07 04:24:25;;;;;;;4.62;4.22;;;17.40;53.50;;;;;;20538;6841;311687;-86
2022/10/07 04:26:50;;;;;;;4.33;3.93;;;17.40;53.50;;;;;;20737;6841;116170;-84
2022/10/07 04:29:16;;;;;;;4.73;4.23;;;17.10;53.90;;;;;;20522;6841;278427;-83
2022/10/07 04:31:42;;;;;;;5.10;3.70;;;16.90;54.10;;;;;;20745;6841;122740;-85
2022/10/07 04:34:07;;;;;;;4.77;4.27;;;16.70;54.40;;;;;;20523;6841;308929;-85
2022/10/07 04:36:34;;;;;;;5.87;4.17;;;16.40;55.50;;;;;;20721;6841;117767;-85
2022/10/07 04:38:59;;;;;;;5.25;4.20;;;16.40;55.00;;;;;;20515;6841;342533;-85
2022/10/07 04:41:26;;;;;;;4.43;4.10;;;16.20;55.10;;;;;;20681;6841;123258;-85
2022/10/07 04:43:52;;;;;;;4.90;4.40;;;16.20;55.30;;;;;;20507;6841;337664;-84
2022/10/07 04:46:18;;;;;;;7.23;4.10;;;16.10;55.40;;;;;;20734;6841;117366;-85
2022/10/07 04:48:47;;;;;;;4.70;4.03;;;16.00;55.30;;;;;;20509;6841;302894;-84
2022/10/07 04:51:16;;;;;;;5.70;4.05;;;16.20;55.70;;;;;;20446;6841;299321;-83
2022/10/07 04:53:42;;;;;;;7.10;4.13;;;16.10;54.90;;;;;;20677;6841;117371;-84
2022/10/07 04:56:10;;;;;;;5.63;4.10;;;15.80;55.60;;;;;;20733;6841;116938;-84
2022/10/07 04:58:35;;;;;;;4.33;3.93;;;15.70;55.40;;;;;;20731;6841;117112;-84
2022/10/07 05:01:02;;;;;;;5.43;4.40;;;15.50;56.00;;;;;;20530;6841;283421;-84
2022/10/07 05:03:31;;;;;;;5.00;4.35;;;15.60;55.60;;;;;;20466;6841;308107;-83
2022/10/07 05:05:56;;;;;;;4.60;4.07;;;15.90;55.30;;;;;;20522;6841;279000;-84
2022/10/07 05:08:25;;;;;;;4.40;3.90;;;15.90;54.80;;;;;;20705;6841;117534;-85
2022/10/07 05:10:55;;;;;;;4.90;4.50;;;15.90;54.70;;;;;;20498;6840;307945;-84
2022/10/07 05:13:23;;;;;;;7.23;3.90;;;15.90;55.00;;;;;;20706;6841;124824;-86
2022/10/07 05:16:01;;;;;;;5.30;4.30;;;15.70;55.10;;;;;;20516;6841;308290;-85
2022/10/07 05:18:27;;;;;;;4.70;4.03;;;15.70;55.70;;;;;;20736;6841;118240;-89
2022/10/07 05:20:54;;;;;;;4.30;3.90;;;15.50;55.70;;;;;;20512;6841;308198;-88
2022/10/07 05:23:20;;;;;;;5.78;3.72;;;15.60;55.90;;;;;;20493;6841;311981;-87
2022/10/07 05:25:45;;;;;;;5.13;3.87;;;15.80;55.50;;;;;;20521;6841;341885;-89
2022/10/07 05:28:11;;;;;;;4.00;3.70;;;15.90;55.10;;;;;;20731;6841;122102;-89
2022/10/07 05:30:36;;;;;;;6.60;3.62;;;15.70;55.30;;;;;;20719;6841;118482;-88
2022/10/07 05:33:02;;;;;;;6.10;3.23;;;15.40;56.00;;;;;;20731;6841;117536;-88
2022/10/07 05:35:28;;;;;;;4.43;4.13;;;15.10;56.50;;;;;;20495;6841;342709;-88
2022/10/07 05:37:55;;;;;;;5.70;4.72;;;15.50;56.20;;;;;;20526;6841;279831;-85
2022/10/07 05:40:24;;;;;;;6.43;4.90;;;15.50;56.20;;;;;;20733;6841;117312;-91
2022/10/07 05:42:51;;;;;;;7.37;4.53;;;15.20;56.80;;;;;;20741;6841;117158;-91
2022/10/07 05:45:18;;;;;;;4.63;4.07;;;15.10;56.70;;;;;;20509;6841;308939;-90
2022/10/07 05:47:43;;;;;;;4.47;4.03;;;15.30;57.00;;;;;;20731;6841;120461;-89
2022/10/07 05:50:08;;;;;;;6.73;4.80;;;15.30;57.10;;;;;;20515;6841;326821;-91
2022/10/07 05:52:34;;;;;;;5.37;4.70;;;15.40;57.40;;;;;;20740;6841;117197;-90
2022/10/07 05:55:01;;;;;;;7.33;6.67;;;15.40;57.30;;;;;;20531;6841;282379;-89
2022/10/07 05:57:28;;;;;;;6.40;4.70;;;15.50;57.20;;;;;;20708;6841;117643;-87
2022/10/07 05:59:55;;;;;;;4.53;4.10;;;15.50;57.20;;;;;;20734;6841;123423;-89
2022/10/07 06:02:19;;;;;;;5.18;4.32;;;15.30;57.70;;;;;;20518;6841;308427;-89
2022/10/07 06:04:46;;;;;;;4.70;3.70;;;15.40;57.60;;;;;;20732;6841;117721;-88
2022/10/07 06:07:13;;;;;;;4.63;3.73;;;15.50;57.50;;;;;;20710;6841;118068;-90
2022/10/07 06:15:09;;;;;;;6.35;5.20;;;15.60;57.50;;;;;;20456;6841;308975;-88
2022/10/07 06:17:35;;;;;;;6.90;4.17;;;15.90;57.20;;;;;;20508;6841;308443;-88
2022/10/07 06:20:01;;;;;;;5.78;4.07;;;16.30;56.50;;;;;;20713;6841;116651;-87
2022/10/07 06:22:26;;;;;;;6.07;3.47;;;16.20;56.30;;;;;;20718;6840;117442;-88
2022/10/07 06:24:56;;;;;;;7.05;3.70;;;15.90;57.10;;;;;;20740;6841;118183;-88
2022/10/07 06:27:19;;;;;;;6.80;3.85;;;16.20;57.10;;;;;;20496;6841;338024;-89
2022/10/07 06:29:44;;;;;;;5.73;3.50;;;16.10;56.90;;;;;;20720;6841;118412;-89
2022/10/07 06:32:10;;;;;;;5.17;3.30;;;16.20;56.70;;;;;;20743;6841;119066;-90
2022/10/07 06:34:35;;;;;;;6.22;3.72;;;16.10;56.80;;;;;;20747;6841;124092;-89
2022/10/07 06:37:01;;;;;;;12.07;4.00;;;16.00;57.10;;;;;;20736;6841;117102;-88
2022/10/07 06:39:27;;;;;;;4.30;3.80;;;16.00;57.50;;;;;;20511;6841;278651;-89
2022/10/07 06:41:53;;;;;;;4.85;3.92;;;16.30;57.00;;;;;;20534;6841;305669;-85
2022/10/07 06:44:18;;;;;;;4.37;3.60;;;16.70;56.00;;;;;;20730;6841;123912;-89
2022/10/07 06:46:43;;;;;;;5.10;3.90;;;16.80;55.90;;;;;;20502;6841;308187;-88
2022/10/07 06:49:09;;;;;;;8.17;5.83;;;17.00;55.40;;;;;;20716;6841;118689;-89
2022/10/07 06:51:34;;;;;;;5.93;4.00;;;17.10;55.50;;;;;;20539;6841;283391;-89
2022/10/07 06:54:01;;;;;;;5.27;3.30;;;17.30;54.90;;;;;;20740;6841;118304;-89
2022/10/07 06:56:26;;;;;;;4.47;3.97;;;17.30;54.90;;;;;;20521;6841;319367;-89
2022/10/07 06:58:52;;;;;;;6.03;4.20;;;17.50;54.60;;;;;;20524;6841;307558;-89
2022/10/07 07:01:18;;;;;;;6.83;3.70;;;17.80;54.00;;;;;;20712;6841;117445;-87
2022/10/07 07:03:43;;;;;;;7.32;4.43;;;17.80;54.10;;;;;;20518;6841;307591;-87
2022/10/07 07:06:09;;;;;;;4.60;4.20;;;17.90;53.90;;;;;;20735;6841;117253;-87
2022/10/07 07:08:37;;;;;;;6.55;4.12;;;17.90;54.10;;;;;;20526;6841;278045;-87
2022/10/07 07:11:02;;;;;;;6.60;4.20;;;18.00;54.00;;;;;;20523;6841;278977;-88
2022/10/07 07:13:27;;;;;;;4.37;3.93;;;18.30;53.60;;;;;;20710;6841;117316;-88
2022/10/07 07:15:57;;;;;;;6.87;3.58;;;18.30;53.60;;;;;;20737;6841;116660;-88
2022/10/07 07:18:23;;;;;;;6.93;4.20;;;18.10;54.10;;;;;;20723;6841;117740;-88
2022/10/07 07:20:48;;;;;;;5.85;4.28;;;18.00;54.50;;;;;;20511;6841;312331;-89
2022/10/07 07:23:14;;;;;;;6.00;4.30;;;18.20;54.00;;;;;;20696;6841;121722;-88
2022/10/07 07:25:44;;;;;;;6.93;4.13;;;18.20;53.50;;;;;;20715;6841;117778;-87
2022/10/07 07:28:09;;;;;;;8.02;4.12;;;18.20;54.00;;;;;;20475;6841;338004;-86
2022/10/07 07:30:34;;;;;;;6.67;4.00;;;18.40;53.20;;;;;;20693;6841;121192;-87
2022/10/07 07:33:00;;;;;;;7.23;3.83;;;18.60;53.40;;;;;;20700;6840;121143;-87
2022/10/07 07:35:26;;;;;;;6.07;3.47;;;18.50;53.80;;;;;;20707;6841;121522;-86
2022/10/07 07:37:52;;;;;;;5.17;3.70;;;18.50;53.80;;;;;;20727;6841;118097;-87
2022/10/07 07:40:17;;;;;;;3.75;3.35;;;18.50;53.90;;;;;;20716;6841;117569;-86
2022/10/07 07:42:43;;;;;;;4.27;3.83;;;18.50;54.00;;;;;;20718;6841;121036;-91
2022/10/07 07:45:10;;;;;;;5.00;4.10;;;18.60;53.90;;;;;;20672;6841;127067;-87
2022/10/07 07:47:35;;;;;;;5.13;4.47;;;18.70;53.80;;;;;;20724;6841;117571;-85
2022/10/07 07:50:02;;;;;;;6.50;5.00;;;18.70;53.70;;;;;;20524;6841;292165;-90
2022/10/07 07:52:26;;;;;;;5.20;4.73;;;19.10;52.30;;;;;;20723;6841;117845;-87
2022/10/07 07:54:56;;;;;;;5.37;4.45;;;19.30;52.20;;;;;;20515;6841;305237;-89
2022/10/07 07:57:20;;;;;;;5.60;3.87;;;19.80;51.30;;;;;;20692;6841;117257;-89
2022/10/07 07:59:46;;;;;;;5.47;4.70;;;19.70;51.40;;;;;;20525;6841;279088;-90
2022/10/07 08:02:13;;;;;;;5.23;4.73;;;20.00;50.60;;;;;;20726;6841;118887;-88
2022/10/07 08:04:39;;;;;;;6.53;5.33;;;20.20;50.80;;;;;;20507;6841;308187;-90
2022/10/07 08:07:04;;;;;;;6.03;5.37;;;20.40;50.60;;;;;;20485;6841;283243;-88
2022/10/07 08:09:30;;;;;;;4.93;4.53;;;20.70;50.10;;;;;;20730;6841;117287;-87
2022/10/07 08:11:56;;;;;;;5.70;5.10;;;20.80;50.20;;;;;;20524;6841;279289;-87
2022/10/07 08:14:22;;;;;;;7.00;6.27;;;21.00;49.50;;;;;;20728;6841;117217;-87
2022/10/07 08:16:47;;;;;;;6.90;5.13;;;21.00;49.60;;;;;;20718;6841;117747;-88
2022/10/07 08:19:14;;;;;;;6.13;5.63;;;20.90;50.10;;;;;;20707;6841;119037;-87
2022/10/07 08:21:39;;;;;;;6.27;5.77;;;20.80;50.60;;;;;;20734;6841;118029;-87
2022/10/07 08:24:04;;;;;;;5.77;4.93;;;20.70;50.70;;;;;;20734;6841;117303;-85
2022/10/07 08:26:30;;;;;;;8.47;5.90;;;20.60;50.60;;;;;;20728;6841;117760;-86
2022/10/07 08:28:56;;;;;;;6.23;5.47;;;20.60;50.80;;;;;;20709;6841;121251;-87
2022/10/07 08:31:21;;;;;;;7.03;6.30;;;20.60;51.10;;;;;;20706;6841;117417;-87
2022/10/07 08:33:47;;;;;;;7.27;6.67;;;20.70;51.30;;;;;;20517;6841;308991;-86
2022/10/07 08:36:17;;;;;;;7.55;6.93;;;21.00;50.70;;;;;;20517;6841;308870;-87
2022/10/07 08:38:43;;;;;;;7.20;6.60;;;21.40;49.00;;;;;;20510;6841;281227;-86
2022/10/07 08:41:08;;;;;;;7.77;7.00;;;21.80;48.10;;;;;;20719;6841;118445;-86
2022/10/07 08:43:40;;;;;;;8.27;7.57;;;21.90;47.70;;;;;;20506;6841;308168;-87
2022/10/07 08:46:03;;;;;;;7.30;6.70;;;21.80;47.60;;;;;;20718;6840;117780;-86
2022/10/07 08:48:29;;;;;;;9.05;7.10;;;21.80;48.30;;;;;;20743;6841;117510;-87
2022/10/07 08:51:05;;;;;;;8.80;8.10;;;21.60;48.70;;;;;;20517;6841;279137;-87
2022/10/07 08:53:32;;;;;;;9.30;8.60;;;21.90;47.20;;;;;;20486;6841;278517;-87
2022/10/07 08:56:00;;;;;;;8.17;7.37;;;21.90;47.20;;;;;;20730;6841;117008;-86
2022/10/07 08:58:48;;;;;;;8.90;8.18;;;21.90;47.60;;;;;;20499;6841;279019;-87
2022/10/07 09:01:31;;;;;;;6.73;6.20;;;21.90;47.30;;;;;;20684;6841;117830;-84
2022/10/07 09:04:10;;;;;;;7.10;6.27;;;21.90;47.30;;;;;;20716;6841;118664;-84
2022/10/07 09:06:54;;;;;;;7.47;6.77;;;21.70;47.90;;;;;;20736;6841;116455;-84
2022/10/07 09:09:21;;;;;;;6.80;6.30;;;21.60;48.20;;;;;;19432;7194;335726;-84
2022/10/07 09:11:46;;;;;;;6.70;6.00;;;21.80;47.10;;;;;;20634;6841;117496;-84
2022/10/07 09:14:21;;;;;;;6.33;5.93;;;21.80;47.60;;;;;;20706;6841;118374;-84
2022/10/07 09:16:47;;;;;;;6.90;6.40;;;21.70;48.10;;;;;;20561;6841;336948;-84
2022/10/07 09:19:33;;;;;;;6.35;5.80;;;22.20;47.90;;;;;;20549;6841;279016;-84
2022/10/07 09:22:18;;;;;;;7.87;5.37;;;22.20;47.90;;;;;;20721;6841;116865;-84
2022/10/07 09:24:42;;;;;;;5.97;5.40;;;22.10;47.80;;;;;;20711;6841;118310;-84
2022/10/07 09:27:08;;;;;;;9.93;9.13;;;21.80;48.00;;;;;;20697;6841;117574;-84
2022/10/07 09:29:33;;;;;;;8.40;7.77;;;21.50;48.30;;;;;;20493;6841;278973;-85
2022/10/07 09:31:59;;;;;;;7.73;7.03;;;21.60;48.20;;;;;;20732;6841;117813;-84
2022/10/07 09:34:24;;;;;;;7.30;6.70;;;21.50;48.20;;;;;;20536;6841;278181;-84
2022/10/07 09:37:13;;;;;;;7.43;6.93;;;21.70;48.50;;;;;;20732;6841;116506;-84
2022/10/07 09:39:39;;;;;;;8.13;7.43;;;21.60;48.30;;;;;;20523;6841;309052;-84
2022/10/07 09:42:05;;;;;;;7.00;6.40;;;21.80;47.60;;;;;;20737;6841;117580;-84
2022/10/07 09:44:30;;;;;;;6.87;6.30;;;21.70;48.10;;;;;;20728;6841;118357;-84
2022/10/07 09:46:58;;;;;;;4.97;4.57;;;21.30;48.80;;;;;;20728;6841;117132;-84
2022/10/07 09:49:38;;;;;;;5.03;4.60;;;21.20;48.90;;;;;;20700;6841;117178;-86
2022/10/07 09:52:03;;;;;;;5.10;4.70;;;21.20;48.90;;;;;;20687;6841;119469;-85
2022/10/07 09:54:29;;;;;;;4.80;4.45;;;21.20;49.10;;;;;;20664;6841;116994;-84
2022/10/07 09:56:56;;;;;;;5.30;4.90;;;21.20;49.10;;;;;;20519;6839;309277;-84
2022/10/07 09:59:23;;;;;;;5.07;4.67;;;21.60;48.30;;;;;;20718;6841;119517;-85
2022/10/07 10:01:53;;;;;;;5.33;5.03;;;21.80;48.20;;;;;;20528;6841;305704;-86
2022/10/07 10:04:19;;;;;;;4.87;4.57;;;22.20;47.00;;;;;;20726;6841;118641;-87
2022/10/07 10:06:44;;;;;;;5.33;4.93;;;22.30;47.10;;;;;;20513;6841;318388;-86
2022/10/07 10:09:12;;;;;;;5.43;5.13;;;22.60;46.60;;;;;;20502;6841;279000;-87
2022/10/07 10:11:37;;;;;;;5.68;5.28;;;22.90;46.10;;;;;;20513;6841;312381;-87
2022/10/07 10:14:02;;;;;;;6.10;5.70;;;23.30;45.40;;;;;;20463;6841;312142;-88
2022/10/07 10:16:39;;;;;;;6.12;5.65;;;23.50;44.80;;;;;;20635;6841;117181;-87
2022/10/07 10:19:07;;;;;;;6.47;5.83;;;23.40;45.20;;;;;;20735;6841;116613;-87
2022/10/07 10:21:35;;;;;;;6.93;6.43;;;23.20;45.80;;;;;;20581;6841;117418;-87
2022/10/07 10:23:59;;;;;;;6.30;5.85;;;22.90;46.20;;;;;;20509;6841;308796;-89
2022/10/07 10:26:24;;;;;;;5.62;5.22;;;23.00;46.00;;;;;;20522;6841;308583;-88
2022/10/07 10:29:10;;;;;;;5.77;5.27;;;23.30;45.60;;;;;;20516;6841;305911;-85
2022/10/07 10:32:15;;;;;;;7.57;5.50;;;23.60;44.90;;;;;;20751;6841;117214;-88
2022/10/07 10:35:03;;;;;;;5.10;4.70;;;23.50;45.30;;;;;;20738;6841;117616;-89
2022/10/07 10:37:38;;;;;;;5.13;4.73;;;23.10;45.90;;;;;;20717;6841;117701;-87
2022/10/07 10:40:30;;;;;;;5.90;5.40;;;22.90;46.40;;;;;;20738;6841;117783;-88
2022/10/07 10:43:37;;;;;;;5.73;5.33;;;22.80;47.50;;;;;;20712;6841;119203;-92
2022/10/07 10:46:22;;;;;;;7.50;6.97;;;22.60;46.90;;;;;;20503;6841;308203;-88
2022/10/07 10:48:54;;;;;;;5.90;5.40;;;22.90;46.40;;;;;;20721;6841;123714;-88
2022/10/07 10:51:33;;;;;;;6.47;5.97;;;23.00;46.60;;;;;;20475;6841;307658;-88
2022/10/07 10:54:18;;;;;;;5.70;5.20;;;23.10;45.70;;;;;;20708;6841;117809;-89
2022/10/07 10:56:45;;;;;;;6.37;5.60;;;23.10;45.90;;;;;;20488;6841;278397;-88
2022/10/07 10:59:34;;;;;;;6.73;6.23;;;23.50;45.10;;;;;;20450;6841;326000;-89
2022/10/07 11:01:59;;;;;;;5.73;5.23;;;23.50;45.10;;;;;;20737;6841;117373;-89
2022/10/07 11:04:40;;;;;;;6.30;5.80;;;23.40;45.40;;;;;;20604;6841;116403;-89
2022/10/07 11:07:15;;;;;;;4.80;4.50;;;23.20;45.80;;;;;;20401;6841;124240;-90
2022/10/07 11:09:41;;;;;;;6.70;6.10;;;23.00;46.40;;;;;;20522;6840;308460;-86
2022/10/07 11:12:11;;;;;;;5.43;5.05;;;23.20;45.70;;;;;;20524;6841;296894;-89
2022/10/07 11:14:36;;;;;;;6.77;5.57;;;23.50;45.70;;;;;;20718;6841;121255;-86
2022/10/07 11:17:03;;;;;;;6.30;5.90;;;23.50;45.70;;;;;;20497;6841;308649;-87
2022/10/07 11:19:35;;;;;;;6.80;6.40;;;23.60;45.10;;;;;;20511;6841;310085;-87
2022/10/07 11:22:01;;;;;;;5.03;4.68;;;23.90;44.50;;;;;;20518;6841;278989;-87
2022/10/07 11:24:38;;;;;;;5.37;4.97;;;23.90;44.50;;;;;;20732;6841;122530;-87
2022/10/07 11:27:16;;;;;;;5.10;4.80;;;23.70;44.80;;;;;;20726;6841;118713;-87
2022/10/07 11:29:41;;;;;;;6.07;5.53;;;23.30;45.30;;;;;;20742;6841;117808;-87
2022/10/07 11:32:07;;;;;;;4.83;4.43;;;23.10;45.80;;;;;;20740;6841;116422;-90
2022/10/07 11:34:55;;;;;;;4.90;4.60;;;22.90;46.10;;;;;;20146;6841;282000;-88
2022/10/07 11:37:34;;;;;;;4.63;4.33;;;23.10;45.60;;;;;;20713;6841;117684;-88
2022/10/07 11:40:00;;;;;;;5.22;4.82;;;23.00;45.70;;;;;;20495;6841;292150;-89
2022/10/07 11:42:26;;;;;;;5.35;4.70;;;23.30;45.90;;;;;;20729;6841;117767;-88
2022/10/07 11:45:01;;;;;;;4.37;4.07;;;23.30;45.90;;;;;;20729;6841;116305;-88
2022/10/07 11:47:27;;;;;;;5.73;4.00;;;23.10;46.00;;;;;;20665;6841;119331;-88
2022/10/07 11:49:56;;;;;;;4.60;4.23;;;22.90;47.00;;;;;;20713;6841;117317;-87
2022/10/07 11:52:25;;;;;;;5.03;4.73;;;22.90;46.40;;;;;;20704;6841;117504;-87
2022/10/07 11:55:04;;;;;;;4.77;4.47;;;22.80;46.40;;;;;;20725;6841;117223;-88
2022/10/07 11:57:33;;;;;;;4.70;4.30;;;22.60;46.50;;;;;;20709;6841;121133;-89
2022/10/07 12:00:06;;;;;;;4.70;4.40;;;22.50;46.60;;;;;;20673;6841;120792;-89
2022/10/07 12:02:30;;;;;;;5.68;5.22;;;22.50;46.70;;;;;;20519;6841;282829;-90
2022/10/07 12:04:56;;;;;;;4.65;4.35;;;22.70;46.40;;;;;;20526;6841;315150;-89
2022/10/07 12:07:43;;;;;;;4.87;4.57;;;23.00;45.50;;;;;;20707;6841;117220;-91
2022/10/07 12:10:20;;;;;;;4.97;4.62;;;23.00;45.60;;;;;;20518;6841;307184;-89
2022/10/07 12:12:46;;;;;;;5.00;4.70;;;23.20;45.80;;;;;;20523;6841;279352;-93
2022/10/07 12:15:29;;;;;;;5.27;4.97;;;23.40;45.30;;;;;;20717;6841;143154;-88
2022/10/07 12:17:54;;;;;;;5.60;5.20;;;23.40;45.30;;;;;;20490;6841;308523;-91
2022/10/07 12:20:45;;;;;;;5.25;4.95;;;23.70;44.60;;;;;;20453;6840;279398;-89
2022/10/07 12:23:15;;;;;;;5.20;4.90;;;23.70;44.60;;;;;;20508;6841;329894;-86
2022/10/07 12:25:41;;;;;;;5.13;4.83;;;23.80;44.00;;;;;;20503;6841;279937;-90
2022/10/07 12:28:07;;;;;;;5.83;5.33;;;23.90;44.00;;;;;;20699;6841;117135;-88
2022/10/07 12:30:41;;;;;;;5.10;4.80;;;23.70;44.20;;;;;;20486;6841;283665;-87
2022/10/07 12:33:16;;;;;;;4.70;4.50;;;23.70;44.20;;;;;;20474;6841;337140;-89
2022/10/07 12:35:41;;;;;;;4.10;3.90;;;23.70;44.00;;;;;;20705;6841;117470;-88
2022/10/07 12:38:25;;;;;;;4.50;4.10;;;23.60;44.40;;;;;;20732;6841;117113;-90
2022/10/07 12:41:04;;;;;;;4.73;4.20;;;23.10;45.40;;;;;;20733;6841;119675;-90
2022/10/07 12:43:49;;;;;;;4.57;4.17;;;23.10;45.40;;;;;;20693;6841;123553;-87
2022/10/07 12:46:15;;;;;;;4.00;3.80;;;22.90;45.90;;;;;;20732;6841;117112;-90
2022/10/07 12:48:41;;;;;;;4.30;3.90;;;22.80;46.40;;;;;;20727;6841;117731;-89
2022/10/07 12:51:10;;;;;;;4.62;4.22;;;22.80;46.40;;;;;;20492;6841;279046;-89
2022/10/07 12:53:36;;;;;;;4.67;4.30;;;23.00;46.00;;;;;;20508;6841;308249;-89